Terminal Aerodrome Forecast
Issued by NWS Kansas City/Pleasant Hill, MO

Home | Current Version | Previous Version | Text Only | Print | Product List | Glossary On
Versions: 1 2 3 4 5 6 7 8 9 10 11 12 13 14 15 16 17 18 19 20 21 22 23 24 25 26
085
FTUS43 KEAX 181720
TAFMCI
TAF
KMCI 181720Z 1818/1918 18008KT 1/2SM FG BKN002
     FM182100 18008KT 4SM BR BKN005
     FM182200 18008KT P6SM BKN008
     FM190100 16006KT 4SM BR SCT025
     FM190600 16005KT 2SM BR BKN025
     FM191200 16005KT 1SM BR OVC003=

USA.gov is the U.S. government's official web portal to all federal, state and local government web resources and services.